createdAt,value
2019-01-02T00:01:46.528Z,3.47
2019-01-02T00:06:50.884Z,2.30
2019-01-02T00:11:54.558Z,2.53
2019-01-02T00:16:58.261Z,2.57
2019-01-02T00:22:01.953Z,2.77
2019-01-02T00:27:06.000Z,2.10
2019-01-02T00:32:10.159Z,2.60
2019-01-02T00:37:14.168Z,2.57
2019-01-02T00:42:18.369Z,3.10
2019-01-02T00:47:22.101Z,2.70
2019-01-02T00:52:25.780Z,2.20
2019-01-02T00:57:29.460Z,2.80
2019-01-02T01:02:33.172Z,3.57
2019-01-02T01:07:37.305Z,3.63
2019-01-02T01:12:41.161Z,2.67
2019-01-02T01:17:44.854Z,3.60
2019-01-02T01:22:48.936Z,3.63
2019-01-02T01:27:52.647Z,4.67
2019-01-02T01:32:56.325Z,3.87
2019-01-02T01:38:00.048Z,3.70
2019-01-02T01:43:03.732Z,3.70
2019-01-02T01:48:08.201Z,4.13
2019-01-02T01:53:11.909Z,2.90
2019-01-02T01:58:15.661Z,3.40
2019-01-02T02:03:19.797Z,3.60
2019-01-02T02:08:23.475Z,3.57
2019-01-02T02:13:27.452Z,3.30
2019-01-02T02:18:31.372Z,4.07
2019-01-02T02:23:35.418Z,3.80
2019-01-02T02:28:39.090Z,3.70
2019-01-02T02:33:42.752Z,3.70
2019-01-02T02:38:46.924Z,3.00
2019-01-02T02:43:51.064Z,3.87
2019-01-02T02:48:55.055Z,3.93
2019-01-02T02:53:59.486Z,3.10
2019-01-02T02:59:03.967Z,3.90
2019-01-02T03:04:08.096Z,4.10
2019-01-02T03:09:12.135Z,4.10
2019-01-02T03:14:15.833Z,3.10
2019-01-02T03:19:19.959Z,5.30
2019-01-02T03:24:24.101Z,3.47
2019-01-02T03:29:27.815Z,4.50
2019-01-02T03:34:31.969Z,4.60
2019-01-02T03:39:35.655Z,3.97
2019-01-02T03:44:39.362Z,4.97
2019-01-02T03:49:43.301Z,4.30
2019-01-02T03:54:46.976Z,3.93
2019-01-02T03:59:50.741Z,3.90
2019-01-02T04:04:54.421Z,4.20
2019-01-02T04:09:58.107Z,3.40
2019-01-02T04:15:01.799Z,3.53
2019-01-02T04:20:05.559Z,3.67
2019-01-02T04:25:09.254Z,3.63
2019-01-02T04:30:14.328Z,4.50
2019-01-02T04:35:18.354Z,3.27
2019-01-02T04:40:22.672Z,4.90
2019-01-02T04:45:26.383Z,3.63
2019-01-02T04:50:30.126Z,3.87
2019-01-02T04:55:33.949Z,3.63
2019-01-02T05:00:37.616Z,3.97
2019-01-02T05:05:41.634Z,3.73
2019-01-02T05:10:45.652Z,3.40
2019-01-02T05:15:49.679Z,3.13
2019-01-02T05:20:53.388Z,4.07
2019-01-02T05:25:57.079Z,3.33
2019-01-02T05:31:00.831Z,3.20
2019-01-02T05:36:04.585Z,3.53
2019-01-02T05:41:08.275Z,4.17
2019-01-02T05:46:12.035Z,3.57
2019-01-02T05:51:15.819Z,3.93
2019-01-02T05:56:19.548Z,4.07
2019-01-02T06:01:23.288Z,3.23
2019-01-02T06:06:27.026Z,3.53
2019-01-02T06:11:30.717Z,3.63
2019-01-02T06:16:34.427Z,3.00
2019-01-02T06:21:38.128Z,3.40
2019-01-02T06:26:42.096Z,2.57
2019-01-02T06:31:45.772Z,3.27
2019-01-02T06:36:49.471Z,3.33
2019-01-02T06:41:53.613Z,2.60
2019-01-02T06:46:57.629Z,4.07
2019-01-02T06:52:01.636Z,2.33
2019-01-02T06:57:05.784Z,3.43
2019-01-02T07:02:09.799Z,3.90
2019-01-02T07:07:13.714Z,6.63
2019-01-02T07:12:17.483Z,3.70
2019-01-02T07:17:21.176Z,5.17
2019-01-02T07:22:25.204Z,4.33
2019-01-02T07:27:29.240Z,4.40
2019-01-02T07:32:32.953Z,7.60
2019-01-02T07:37:54.769Z,3.47
2019-01-02T07:43:50.969Z,3.30
2019-01-02T07:49:15.996Z,3.10
2019-01-02T07:54:45.529Z,3.00
2019-01-02T08:00:26.283Z,3.13
2019-01-02T08:05:42.105Z,2.93
2019-01-02T08:10:58.023Z,2.83
2019-01-02T08:16:49.079Z,3.43
2019-01-02T08:22:30.897Z,2.60
2019-01-02T08:27:56.335Z,2.97
2019-01-02T08:33:23.404Z,2.33
2019-01-02T08:39:03.260Z,2.87
2019-01-02T08:44:47.548Z,2.73
2019-01-02T08:50:16.545Z,2.47
2019-01-02T08:56:04.822Z,2.20
2019-01-02T09:01:37.804Z,2.43
2019-01-02T09:06:53.120Z,2.40
2019-01-02T09:12:04.207Z,2.17
2019-01-02T09:17:46.858Z,1.50
2019-01-02T09:23:17.691Z,1.93
2019-01-02T09:29:01.488Z,1.90
2019-01-02T09:34:40.291Z,1.97
2019-01-02T09:40:11.028Z,2.00
2019-01-02T09:45:45.871Z,2.07
2019-01-02T09:51:35.919Z,2.80
2019-01-02T09:57:15.913Z,3.00
2019-01-02T10:02:48.005Z,1.97
2019-01-02T10:08:29.901Z,1.80
2019-01-02T10:14:24.183Z,1.80
2019-01-02T10:20:09.030Z,1.67
2019-01-02T10:25:40.796Z,1.40
2019-01-02T10:31:21.250Z,1.70
2019-01-02T10:36:43.144Z,2.10
2019-01-02T10:42:23.418Z,1.90
2019-01-02T10:47:43.916Z,1.50
2019-01-02T10:53:03.691Z,1.47
2019-01-02T10:59:03.811Z,2.50
2019-01-02T11:04:38.561Z,1.80
2019-01-02T11:10:13.556Z,1.90
2019-01-02T11:16:00.475Z,1.97
2019-01-02T11:21:18.044Z,1.67
2019-01-02T11:26:56.011Z,1.70
2019-01-02T11:32:35.241Z,1.50
2019-01-02T11:38:08.142Z,1.17
2019-01-02T11:43:43.736Z,1.10
2019-01-02T11:48:47.403Z,1.03
2019-01-02T11:53:51.161Z,0.80
2019-01-02T11:58:55.262Z,1.00
2019-01-02T12:03:58.934Z,1.23
2019-01-02T12:09:03.838Z,1.10
2019-01-02T12:14:07.779Z,0.83
2019-01-02T12:19:11.446Z,0.93
2019-01-02T12:24:15.212Z,0.73
2019-01-02T12:29:18.913Z,0.90
2019-01-02T12:34:22.600Z,1.00
2019-01-02T12:39:26.615Z,0.97
2019-01-02T12:44:30.347Z,1.13
2019-01-02T12:49:34.029Z,1.00
2019-01-02T12:54:37.688Z,1.33
2019-01-02T12:59:41.389Z,1.20
2019-01-02T13:05:28.216Z,0.97
2019-01-02T13:10:45.877Z,1.10
2019-01-02T13:16:03.465Z,1.30
2019-01-02T13:21:41.118Z,1.20
2019-01-02T13:27:07.917Z,1.53
2019-01-02T13:32:50.269Z,0.93
2019-01-02T13:38:36.927Z,1.73
2019-01-02T13:43:49.511Z,1.27
2019-01-02T13:49:23.346Z,1.00
2019-01-02T13:54:28.409Z,1.30
2019-01-02T13:59:32.317Z,1.00
2019-01-02T14:04:36.921Z,1.40
2019-01-02T14:09:40.894Z,1.00
2019-01-02T14:14:44.645Z,1.10
2019-01-02T14:19:49.205Z,1.00
2019-01-02T14:24:53.588Z,1.47
2019-01-02T14:29:57.759Z,1.37
2019-01-02T14:35:01.483Z,1.20
2019-01-02T14:40:05.604Z,1.07
2019-01-02T14:45:09.348Z,1.50
2019-01-02T14:50:13.148Z,1.40
2019-01-02T14:55:16.862Z,1.50
2019-01-02T15:00:20.758Z,2.30
2019-01-02T15:05:24.861Z,1.87
2019-01-02T15:10:28.682Z,1.60
2019-01-02T15:15:32.752Z,2.73
2019-01-02T15:20:36.635Z,3.20
2019-01-02T15:25:40.545Z,3.50
2019-01-02T15:30:44.723Z,2.47
2019-01-02T15:35:49.046Z,2.17
2019-01-02T15:40:52.885Z,2.50
2019-01-02T15:45:56.636Z,1.93
2019-01-02T15:51:00.319Z,2.80
2019-01-02T15:56:04.417Z,2.30
2019-01-02T16:01:08.426Z,2.03
2019-01-02T16:06:12.559Z,2.23
2019-01-02T16:11:16.712Z,2.17
2019-01-02T16:16:20.957Z,2.13
2019-01-02T16:21:24.674Z,2.30
2019-01-02T16:26:28.386Z,1.90
2019-01-02T16:31:32.128Z,1.70
2019-01-02T16:36:35.834Z,1.70
2019-01-02T16:41:39.758Z,1.10
2019-01-02T16:46:43.664Z,1.30
2019-01-02T16:51:47.542Z,1.40
2019-01-02T16:56:51.536Z,1.73
2019-01-02T17:01:55.262Z,1.70
2019-01-02T17:06:58.951Z,2.27
2019-01-02T17:12:02.659Z,2.93
2019-01-02T17:17:06.377Z,2.50
2019-01-02T17:22:10.232Z,1.53
2019-01-02T17:27:14.192Z,2.17
2019-01-02T17:32:17.873Z,1.70
2019-01-02T17:37:21.601Z,2.30
2019-01-02T17:42:25.352Z,1.40
2019-01-02T17:47:29.433Z,1.37
2019-01-02T17:52:33.168Z,1.13
2019-01-02T17:57:36.856Z,1.60
2019-01-02T18:02:40.688Z,1.57
2019-01-02T18:07:44.382Z,1.70
2019-01-02T18:12:49.133Z,2.13
2019-01-02T18:17:52.889Z,1.60
2019-01-02T18:22:56.734Z,2.03
2019-01-02T18:28:00.427Z,1.67
2019-01-02T18:33:04.197Z,2.20
2019-01-02T18:38:08.222Z,2.83
2019-01-02T18:43:11.948Z,1.50
2019-01-02T18:48:16.443Z,2.03
2019-01-02T18:53:20.880Z,1.60
2019-01-02T18:58:24.630Z,1.60
2019-01-02T19:03:28.515Z,1.70
2019-01-02T19:08:32.325Z,1.80
2019-01-02T19:13:36.392Z,1.97
2019-01-02T19:18:40.412Z,1.30
2019-01-02T19:23:44.246Z,1.30
2019-01-02T19:28:47.977Z,1.10
2019-01-02T19:33:51.789Z,1.30
2019-01-02T19:38:55.935Z,1.50
2019-01-02T19:43:59.731Z,1.23
2019-01-02T19:49:03.407Z,1.50
2019-01-02T19:54:07.797Z,1.40
2019-01-02T19:59:11.621Z,1.80
2019-01-02T20:04:15.497Z,1.70
2019-01-02T20:09:19.597Z,1.50
2019-01-02T20:14:23.322Z,1.53
2019-01-02T20:19:26.991Z,1.70
2019-01-02T20:24:30.960Z,1.50
2019-01-02T20:29:34.648Z,1.43
2019-01-02T20:34:38.697Z,1.30
2019-01-02T20:39:42.595Z,2.00
2019-01-02T20:44:46.405Z,1.30
2019-01-02T20:49:50.196Z,1.10
2019-01-02T20:54:54.014Z,1.53
2019-01-02T20:59:58.009Z,1.50
2019-01-02T21:05:01.836Z,1.37
2019-01-02T21:10:06.873Z,1.50
2019-01-02T21:15:10.907Z,1.30
2019-01-02T21:20:14.936Z,1.47
2019-01-02T21:25:21.812Z,1.33
2019-01-02T21:30:25.844Z,1.43
2019-01-02T21:35:29.577Z,1.00
2019-01-02T21:40:33.877Z,1.20
2019-01-02T21:45:39.857Z,1.27
2019-01-02T21:50:44.009Z,1.40
2019-01-02T21:55:50.311Z,1.30
2019-01-02T22:00:55.307Z,1.50
2019-01-02T22:05:59.693Z,1.10
2019-01-02T22:11:03.352Z,1.40
2019-01-02T22:16:07.146Z,1.10
2019-01-02T22:21:11.196Z,1.40
2019-01-02T22:26:15.214Z,1.30
2019-01-02T22:31:26.074Z,1.60
2019-01-02T22:36:29.966Z,1.50
2019-01-02T22:41:33.921Z,1.53
2019-01-02T22:46:37.840Z,1.40
2019-01-02T22:51:41.792Z,1.43
2019-01-02T22:56:45.511Z,1.43
2019-01-02T23:01:58.311Z,1.70
2019-01-02T23:07:16.964Z,1.50
2019-01-02T23:12:31.268Z,2.10
2019-01-02T23:17:59.882Z,1.80
2019-01-02T23:23:21.360Z,1.40
2019-01-02T23:28:50.404Z,1.47
2019-01-02T23:34:09.076Z,1.63
2019-01-02T23:39:46.784Z,1.30
2019-01-02T23:45:08.393Z,1.33
2019-01-02T23:50:32.315Z,1.60
2019-01-02T23:55:55.217Z,1.37
